sensor_id;sensor_type;location;lat;lon;timestamp;P1;durP1;ratioP1;P2;durP2;ratioP2
4278;SDS011;2153;47.744;10.580;2023-03-01T00:00:54;54.83;;;28.90;;
4278;SDS011;2153;47.744;10.580;2023-03-01T00:03:20;59.23;;;30.30;;
4278;SDS011;2153;47.744;10.580;2023-03-01T00:05:47;58.27;;;29.60;;
4278;SDS011;2153;47.744;10.580;2023-03-01T00:08:14;58.63;;;28.80;;
4278;SDS011;2153;47.744;10.580;2023-03-01T00:10:41;57.37;;;27.17;;
4278;SDS011;2153;47.744;10.580;2023-03-01T00:13:07;64.43;;;29.50;;
4278;SDS011;2153;47.744;10.580;2023-03-01T00:15:37;60.63;;;28.83;;
4278;SDS011;2153;47.744;10.580;2023-03-01T00:18:06;61.60;;;29.20;;
4278;SDS011;2153;47.744;10.580;2023-03-01T00:20:33;56.70;;;29.97;;
4278;SDS011;2153;47.744;10.580;2023-03-01T00:23:00;56.80;;;29.87;;
4278;SDS011;2153;47.744;10.580;2023-03-01T00:25:26;68.47;;;31.13;;
4278;SDS011;2153;47.744;10.580;2023-03-01T00:27:53;59.10;;;28.00;;
4278;SDS011;2153;47.744;10.580;2023-03-01T00:30:20;60.63;;;28.83;;
4278;SDS011;2153;47.744;10.580;2023-03-01T00:32:46;57.07;;;28.03;;
4278;SDS011;2153;47.744;10.580;2023-03-01T00:35:15;57.20;;;28.90;;
4278;SDS011;2153;47.744;10.580;2023-03-01T00:37:41;62.03;;;30.93;;
4278;SDS011;2153;47.744;10.580;2023-03-01T00:40:08;59.93;;;30.87;;
4278;SDS011;2153;47.744;10.580;2023-03-01T00:42:36;61.87;;;28.97;;
4278;SDS011;2153;47.744;10.580;2023-03-01T00:45:03;63.20;;;31.10;;
4278;SDS011;2153;47.744;10.580;2023-03-01T00:47:32;58.77;;;27.97;;
4278;SDS011;2153;47.744;10.580;2023-03-01T00:49:59;63.67;;;29.20;;
4278;SDS011;2153;47.744;10.580;2023-03-01T00:52:27;59.20;;;28.97;;
4278;SDS011;2153;47.744;10.580;2023-03-01T00:54:54;59.20;;;29.90;;
4278;SDS011;2153;47.744;10.580;2023-03-01T00:57:21;60.17;;;30.60;;
4278;SDS011;2153;47.744;10.580;2023-03-01T00:59:47;66.13;;;30.60;;
4278;SDS011;2153;47.744;10.580;2023-03-01T01:02:14;61.90;;;30.57;;
4278;SDS011;2153;47.744;10.580;2023-03-01T01:04:41;64.03;;;31.13;;
4278;SDS011;2153;47.744;10.580;2023-03-01T01:07:07;59.27;;;30.77;;
4278;SDS011;2153;47.744;10.580;2023-03-01T01:09:35;68.73;;;31.67;;
4278;SDS011;2153;47.744;10.580;2023-03-01T01:12:03;64.77;;;31.23;;
4278;SDS011;2153;47.744;10.580;2023-03-01T01:14:30;64.43;;;30.87;;
4278;SDS011;2153;47.744;10.580;2023-03-01T01:16:57;61.90;;;33.40;;
4278;SDS011;2153;47.744;10.580;2023-03-01T01:19:24;64.47;;;30.47;;
4278;SDS011;2153;47.744;10.580;2023-03-01T01:21:51;64.47;;;32.67;;
4278;SDS011;2153;47.744;10.580;2023-03-01T01:24:18;55.23;;;28.73;;
4278;SDS011;2153;47.744;10.580;2023-03-01T01:26:46;64.27;;;32.47;;
4278;SDS011;2153;47.744;10.580;2023-03-01T01:29:13;60.10;;;29.57;;
4278;SDS011;2153;47.744;10.580;2023-03-01T01:31:41;63.60;;;33.40;;
4278;SDS011;2153;47.744;10.580;2023-03-01T01:34:12;65.50;;;31.63;;
4278;SDS011;2153;47.744;10.580;2023-03-01T01:36:41;59.90;;;31.47;;
4278;SDS011;2153;47.744;10.580;2023-03-01T01:39:07;59.03;;;30.10;;
4278;SDS011;2153;47.744;10.580;2023-03-01T01:41:37;63.23;;;30.37;;
4278;SDS011;2153;47.744;10.580;2023-03-01T01:44:17;63.60;;;30.77;;
4278;SDS011;2153;47.744;10.580;2023-03-01T01:46:46;65.40;;;32.90;;
4278;SDS011;2153;47.744;10.580;2023-03-01T01:49:26;65.87;;;30.53;;
4278;SDS011;2153;47.744;10.580;2023-03-01T01:52:02;67.97;;;31.07;;
4278;SDS011;2153;47.744;10.580;2023-03-01T01:54:37;67.63;;;32.40;;
4278;SDS011;2153;47.744;10.580;2023-03-01T01:57:09;61.47;;;30.67;;
4278;SDS011;2153;47.744;10.580;2023-03-01T01:59:41;57.73;;;29.37;;
4278;SDS011;2153;47.744;10.580;2023-03-01T02:02:13;59.73;;;30.10;;
4278;SDS011;2153;47.744;10.580;2023-03-01T02:04:40;57.47;;;28.33;;
4278;SDS011;2153;47.744;10.580;2023-03-01T02:07:09;63.00;;;32.00;;
4278;SDS011;2153;47.744;10.580;2023-03-01T02:09:41;62.67;;;29.90;;
4278;SDS011;2153;47.744;10.580;2023-03-01T02:12:11;71.83;;;31.40;;
4278;SDS011;2153;47.744;10.580;2023-03-01T02:14:41;66.73;;;32.57;;
4278;SDS011;2153;47.744;10.580;2023-03-01T02:17:08;64.23;;;32.20;;
4278;SDS011;2153;47.744;10.580;2023-03-01T02:19:39;59.00;;;29.30;;
4278;SDS011;2153;47.744;10.580;2023-03-01T02:22:14;58.47;;;29.07;;
4278;SDS011;2153;47.744;10.580;2023-03-01T02:24:48;62.37;;;27.73;;
4278;SDS011;2153;47.744;10.580;2023-03-01T02:27:28;59.27;;;29.33;;
4278;SDS011;2153;47.744;10.580;2023-03-01T02:30:00;59.10;;;28.97;;
4278;SDS011;2153;47.744;10.580;2023-03-01T02:32:27;59.10;;;27.80;;
4278;SDS011;2153;47.744;10.580;2023-03-01T02:34:54;57.30;;;26.17;;
4278;SDS011;2153;47.744;10.580;2023-03-01T02:37:21;53.57;;;27.03;;
4278;SDS011;2153;47.744;10.580;2023-03-01T02:39:51;56.70;;;27.80;;
4278;SDS011;2153;47.744;10.580;2023-03-01T02:42:23;57.70;;;26.87;;
4278;SDS011;2153;47.744;10.580;2023-03-01T02:44:54;55.07;;;26.60;;
4278;SDS011;2153;47.744;10.580;2023-03-01T02:47:22;39.90;;;19.27;;
4278;SDS011;2153;47.744;10.580;2023-03-01T02:49:49;55.27;;;26.63;;
4278;SDS011;2153;47.744;10.580;2023-03-01T02:52:30;53.40;;;25.33;;
4278;SDS011;2153;47.744;10.580;2023-03-01T02:55:03;49.23;;;24.00;;
4278;SDS011;2153;47.744;10.580;2023-03-01T02:57:34;49.97;;;24.90;;
4278;SDS011;2153;47.744;10.580;2023-03-01T03:00:04;47.47;;;25.27;;
4278;SDS011;2153;47.744;10.580;2023-03-01T03:02:37;47.30;;;23.33;;
4278;SDS011;2153;47.744;10.580;2023-03-01T03:05:05;47.03;;;22.50;;
4278;SDS011;2153;47.744;10.580;2023-03-01T03:07:34;51.60;;;23.67;;
4278;SDS011;2153;47.744;10.580;2023-03-01T03:10:02;53.00;;;24.87;;
4278;SDS011;2153;47.744;10.580;2023-03-01T03:12:30;44.47;;;22.80;;
4278;SDS011;2153;47.744;10.580;2023-03-01T03:14:57;46.13;;;21.67;;
4278;SDS011;2153;47.744;10.580;2023-03-01T03:17:24;41.73;;;20.70;;
4278;SDS011;2153;47.744;10.580;2023-03-01T03:19:52;42.63;;;20.90;;
4278;SDS011;2153;47.744;10.580;2023-03-01T03:22:18;39.97;;;18.30;;
4278;SDS011;2153;47.744;10.580;2023-03-01T03:24:45;35.47;;;18.07;;
4278;SDS011;2153;47.744;10.580;2023-03-01T03:27:12;43.97;;;19.03;;
4278;SDS011;2153;47.744;10.580;2023-03-01T03:29:38;37.63;;;18.20;;
4278;SDS011;2153;47.744;10.580;2023-03-01T03:32:05;42.40;;;20.03;;
4278;SDS011;2153;47.744;10.580;2023-03-01T03:34:32;40.13;;;18.87;;
4278;SDS011;2153;47.744;10.580;2023-03-01T03:37:00;41.43;;;18.30;;
4278;SDS011;2153;47.744;10.580;2023-03-01T03:39:27;38.47;;;17.63;;
4278;SDS011;2153;47.744;10.580;2023-03-01T03:41:54;37.97;;;19.03;;
4278;SDS011;2153;47.744;10.580;2023-03-01T03:44:20;38.40;;;18.20;;
4278;SDS011;2153;47.744;10.580;2023-03-01T03:46:47;42.47;;;21.00;;
4278;SDS011;2153;47.744;10.580;2023-03-01T03:49:14;46.27;;;22.20;;
4278;SDS011;2153;47.744;10.580;2023-03-01T03:51:41;39.93;;;19.90;;
4278;SDS011;2153;47.744;10.580;2023-03-01T03:54:09;42.90;;;20.30;;
4278;SDS011;2153;47.744;10.580;2023-03-01T03:56:36;41.30;;;20.57;;
4278;SDS011;2153;47.744;10.580;2023-03-01T03:59:02;46.07;;;22.60;;
4278;SDS011;2153;47.744;10.580;2023-03-01T04:01:30;44.40;;;19.17;;
4278;SDS011;2153;47.744;10.580;2023-03-01T04:03:57;47.43;;;21.37;;
4278;SDS011;2153;47.744;10.580;2023-03-01T04:06:28;43.63;;;21.27;;
4278;SDS011;2153;47.744;10.580;2023-03-01T04:08:55;35.90;;;16.80;;
4278;SDS011;2153;47.744;10.580;2023-03-01T04:11:28;34.47;;;16.17;;
4278;SDS011;2153;47.744;10.580;2023-03-01T04:13:56;43.10;;;20.50;;
4278;SDS011;2153;47.744;10.580;2023-03-01T04:16:25;46.17;;;20.37;;
4278;SDS011;2153;47.744;10.580;2023-03-01T04:18:52;38.97;;;20.60;;
4278;SDS011;2153;47.744;10.580;2023-03-01T04:21:19;40.07;;;20.87;;
4278;SDS011;2153;47.744;10.580;2023-03-01T04:23:46;39.63;;;19.27;;
4278;SDS011;2153;47.744;10.580;2023-03-01T04:26:13;44.50;;;19.53;;
4278;SDS011;2153;47.744;10.580;2023-03-01T04:28:41;43.13;;;21.00;;
4278;SDS011;2153;47.744;10.580;2023-03-01T04:31:11;43.97;;;20.37;;
4278;SDS011;2153;47.744;10.580;2023-03-01T04:33:39;42.00;;;20.63;;
4278;SDS011;2153;47.744;10.580;2023-03-01T04:36:07;48.40;;;22.57;;
4278;SDS011;2153;47.744;10.580;2023-03-01T04:38:35;49.70;;;22.67;;
4278;SDS011;2153;47.744;10.580;2023-03-01T04:41:03;48.33;;;23.97;;
4278;SDS011;2153;47.744;10.580;2023-03-01T04:43:30;46.30;;;23.60;;
4278;SDS011;2153;47.744;10.580;2023-03-01T04:46:01;54.73;;;23.07;;
4278;SDS011;2153;47.744;10.580;2023-03-01T04:48:28;43.67;;;19.40;;
4278;SDS011;2153;47.744;10.580;2023-03-01T04:50:56;55.60;;;20.83;;
4278;SDS011;2153;47.744;10.580;2023-03-01T04:53:22;49.97;;;21.70;;
4278;SDS011;2153;47.744;10.580;2023-03-01T04:55:49;52.47;;;24.13;;
4278;SDS011;2153;47.744;10.580;2023-03-01T04:58:16;45.27;;;21.17;;
4278;SDS011;2153;47.744;10.580;2023-03-01T05:00:43;42.53;;;19.30;;
4278;SDS011;2153;47.744;10.580;2023-03-01T05:03:11;45.03;;;22.30;;
4278;SDS011;2153;47.744;10.580;2023-03-01T05:05:43;57.83;;;23.33;;
4278;SDS011;2153;47.744;10.580;2023-03-01T05:08:11;46.93;;;21.70;;
4278;SDS011;2153;47.744;10.580;2023-03-01T05:10:42;40.60;;;18.10;;
4278;SDS011;2153;47.744;10.580;2023-03-01T05:13:10;47.03;;;22.60;;
4278;SDS011;2153;47.744;10.580;2023-03-01T05:15:40;48.20;;;22.80;;
4278;SDS011;2153;47.744;10.580;2023-03-01T05:18:07;46.40;;;22.93;;
4278;SDS011;2153;47.744;10.580;2023-03-01T05:20:37;51.97;;;23.83;;
4278;SDS011;2153;47.744;10.580;2023-03-01T05:23:04;47.30;;;21.60;;
4278;SDS011;2153;47.744;10.580;2023-03-01T05:25:34;50.27;;;25.67;;
4278;SDS011;2153;47.744;10.580;2023-03-01T05:28:05;51.03;;;24.50;;
4278;SDS011;2153;47.744;10.580;2023-03-01T05:30:34;42.93;;;20.57;;
4278;SDS011;2153;47.744;10.580;2023-03-01T05:33:04;42.00;;;20.23;;
4278;SDS011;2153;47.744;10.580;2023-03-01T05:35:39;39.83;;;20.43;;
4278;SDS011;2153;47.744;10.580;2023-03-01T05:38:07;44.27;;;21.33;;
4278;SDS011;2153;47.744;10.580;2023-03-01T05:40:34;40.87;;;17.30;;
4278;SDS011;2153;47.744;10.580;2023-03-01T05:43:01;37.10;;;19.20;;
4278;SDS011;2153;47.744;10.580;2023-03-01T05:45:30;40.37;;;17.87;;
4278;SDS011;2153;47.744;10.580;2023-03-01T05:47:58;42.87;;;19.30;;
4278;SDS011;2153;47.744;10.580;2023-03-01T05:50:26;48.10;;;19.90;;
4278;SDS011;2153;47.744;10.580;2023-03-01T05:52:58;44.87;;;19.50;;
4278;SDS011;2153;47.744;10.580;2023-03-01T05:55:26;38.73;;;17.33;;
4278;SDS011;2153;47.744;10.580;2023-03-01T05:57:53;36.00;;;18.40;;
4278;SDS011;2153;47.744;10.580;2023-03-01T06:00:21;36.17;;;17.60;;
4278;SDS011;2153;47.744;10.580;2023-03-01T06:02:48;38.67;;;17.60;;
4278;SDS011;2153;47.744;10.580;2023-03-01T06:05:15;41.33;;;18.90;;
4278;SDS011;2153;47.744;10.580;2023-03-01T06:07:42;39.90;;;18.70;;
4278;SDS011;2153;47.744;10.580;2023-03-01T06:10:10;40.23;;;19.07;;
4278;SDS011;2153;47.744;10.580;2023-03-01T06:12:39;38.67;;;18.23;;
4278;SDS011;2153;47.744;10.580;2023-03-01T06:15:07;40.77;;;18.70;;
4278;SDS011;2153;47.744;10.580;2023-03-01T06:17:36;37.67;;;17.43;;
4278;SDS011;2153;47.744;10.580;2023-03-01T06:20:06;35.40;;;17.37;;
4278;SDS011;2153;47.744;10.580;2023-03-01T06:22:34;36.30;;;17.70;;
4278;SDS011;2153;47.744;10.580;2023-03-01T06:25:02;34.03;;;17.43;;
4278;SDS011;2153;47.744;10.580;2023-03-01T06:27:30;40.27;;;18.10;;
4278;SDS011;2153;47.744;10.580;2023-03-01T06:29:57;42.63;;;19.00;;
4278;SDS011;2153;47.744;10.580;2023-03-01T06:32:24;42.40;;;19.60;;
4278;SDS011;2153;47.744;10.580;2023-03-01T06:34:50;36.53;;;17.57;;
4278;SDS011;2153;47.744;10.580;2023-03-01T06:37:17;37.87;;;17.97;;
4278;SDS011;2153;47.744;10.580;2023-03-01T06:39:44;40.40;;;20.73;;
4278;SDS011;2153;47.744;10.580;2023-03-01T06:42:11;39.90;;;18.70;;
4278;SDS011;2153;47.744;10.580;2023-03-01T06:44:39;37.37;;;17.40;;
4278;SDS011;2153;47.744;10.580;2023-03-01T06:47:05;38.00;;;17.77;;
4278;SDS011;2153;47.744;10.580;2023-03-01T06:49:32;38.17;;;18.70;;
4278;SDS011;2153;47.744;10.580;2023-03-01T06:51:59;42.23;;;19.07;;
4278;SDS011;2153;47.744;10.580;2023-03-01T06:54:25;39.67;;;20.43;;
4278;SDS011;2153;47.744;10.580;2023-03-01T06:56:52;47.07;;;20.53;;
4278;SDS011;2153;47.744;10.580;2023-03-01T06:59:19;44.00;;;18.87;;
4278;SDS011;2153;47.744;10.580;2023-03-01T07:01:47;38.80;;;18.43;;
4278;SDS011;2153;47.744;10.580;2023-03-01T07:04:21;32.70;;;15.33;;
4278;SDS011;2153;47.744;10.580;2023-03-01T07:06:48;39.00;;;16.47;;
4278;SDS011;2153;47.744;10.580;2023-03-01T07:09:20;41.97;;;19.33;;
4278;SDS011;2153;47.744;10.580;2023-03-01T07:11:47;36.60;;;19.47;;
4278;SDS011;2153;47.744;10.580;2023-03-01T07:14:14;35.40;;;18.70;;
4278;SDS011;2153;47.744;10.580;2023-03-01T07:16:41;39.20;;;18.33;;
4278;SDS011;2153;47.744;10.580;2023-03-01T07:19:09;38.10;;;19.03;;
4278;SDS011;2153;47.744;10.580;2023-03-01T07:21:35;39.53;;;19.70;;
4278;SDS011;2153;47.744;10.580;2023-03-01T07:24:03;37.83;;;18.57;;
4278;SDS011;2153;47.744;10.580;2023-03-01T07:26:31;41.50;;;20.77;;
4278;SDS011;2153;47.744;10.580;2023-03-01T07:28:58;38.90;;;18.67;;
4278;SDS011;2153;47.744;10.580;2023-03-01T07:31:25;40.63;;;20.13;;
4278;SDS011;2153;47.744;10.580;2023-03-01T07:33:52;38.70;;;18.03;;
4278;SDS011;2153;47.744;10.580;2023-03-01T07:36:21;42.97;;;19.97;;
4278;SDS011;2153;47.744;10.580;2023-03-01T07:38:48;44.00;;;20.43;;
4278;SDS011;2153;47.744;10.580;2023-03-01T07:41:15;43.70;;;20.57;;
4278;SDS011;2153;47.744;10.580;2023-03-01T07:43:41;53.33;;;19.17;;
4278;SDS011;2153;47.744;10.580;2023-03-01T07:46:08;46.80;;;20.50;;
4278;SDS011;2153;47.744;10.580;2023-03-01T07:48:35;38.33;;;17.83;;
4278;SDS011;2153;47.744;10.580;2023-03-01T07:51:03;40.57;;;19.03;;
4278;SDS011;2153;47.744;10.580;2023-03-01T07:53:32;38.97;;;19.70;;
4278;SDS011;2153;47.744;10.580;2023-03-01T07:56:00;42.73;;;19.27;;
4278;SDS011;2153;47.744;10.580;2023-03-01T07:58:27;40.50;;;19.10;;
4278;SDS011;2153;47.744;10.580;2023-03-01T08:00:54;37.07;;;19.23;;
4278;SDS011;2153;47.744;10.580;2023-03-01T08:03:21;41.03;;;19.77;;
4278;SDS011;2153;47.744;10.580;2023-03-01T08:05:47;43.47;;;19.00;;
4278;SDS011;2153;47.744;10.580;2023-03-01T08:08:14;47.77;;;22.03;;
4278;SDS011;2153;47.744;10.580;2023-03-01T08:10:42;37.80;;;18.67;;
4278;SDS011;2153;47.744;10.580;2023-03-01T08:13:09;45.27;;;19.30;;
4278;SDS011;2153;47.744;10.580;2023-03-01T08:15:35;37.77;;;19.07;;
4278;SDS011;2153;47.744;10.580;2023-03-01T08:18:02;39.73;;;19.17;;
4278;SDS011;2153;47.744;10.580;2023-03-01T08:20:29;43.10;;;19.90;;
4278;SDS011;2153;47.744;10.580;2023-03-01T08:22:57;37.60;;;19.00;;
4278;SDS011;2153;47.744;10.580;2023-03-01T08:25:24;36.87;;;16.27;;
4278;SDS011;2153;47.744;10.580;2023-03-01T08:27:52;36.87;;;17.90;;
4278;SDS011;2153;47.744;10.580;2023-03-01T08:30:19;49.77;;;19.90;;
4278;SDS011;2153;47.744;10.580;2023-03-01T08:32:46;41.20;;;20.00;;
4278;SDS011;2153;47.744;10.580;2023-03-01T08:35:12;44.80;;;20.67;;
4278;SDS011;2153;47.744;10.580;2023-03-01T08:37:39;44.40;;;20.57;;
4278;SDS011;2153;47.744;10.580;2023-03-01T08:40:06;38.17;;;18.37;;
4278;SDS011;2153;47.744;10.580;2023-03-01T08:42:35;38.77;;;18.83;;
4278;SDS011;2153;47.744;10.580;2023-03-01T08:45:03;39.77;;;18.53;;
4278;SDS011;2153;47.744;10.580;2023-03-01T08:47:30;39.70;;;19.83;;
4278;SDS011;2153;47.744;10.580;2023-03-01T08:49:58;42.27;;;21.23;;
4278;SDS011;2153;47.744;10.580;2023-03-01T08:52:25;40.43;;;17.33;;
4278;SDS011;2153;47.744;10.580;2023-03-01T08:54:52;37.23;;;18.47;;
4278;SDS011;2153;47.744;10.580;2023-03-01T08:57:19;49.00;;;21.60;;
4278;SDS011;2153;47.744;10.580;2023-03-01T08:59:46;46.10;;;21.03;;
4278;SDS011;2153;47.744;10.580;2023-03-01T09:02:14;42.37;;;19.70;;
4278;SDS011;2153;47.744;10.580;2023-03-01T09:04:43;45.23;;;21.50;;
4278;SDS011;2153;47.744;10.580;2023-03-01T09:07:10;46.77;;;21.93;;
4278;SDS011;2153;47.744;10.580;2023-03-01T09:09:37;41.87;;;20.43;;
4278;SDS011;2153;47.744;10.580;2023-03-01T09:12:04;43.93;;;20.77;;
4278;SDS011;2153;47.744;10.580;2023-03-01T09:14:31;42.40;;;20.97;;
4278;SDS011;2153;47.744;10.580;2023-03-01T09:16:57;45.03;;;21.87;;
4278;SDS011;2153;47.744;10.580;2023-03-01T09:19:29;32.47;;;15.60;;
4278;SDS011;2153;47.744;10.580;2023-03-01T09:21:55;43.07;;;22.10;;
4278;SDS011;2153;47.744;10.580;2023-03-01T09:24:23;46.97;;;21.33;;
4278;SDS011;2153;47.744;10.580;2023-03-01T09:26:52;43.60;;;20.97;;
4278;SDS011;2153;47.744;10.580;2023-03-01T09:29:20;40.50;;;20.70;;
4278;SDS011;2153;47.744;10.580;2023-03-01T09:31:47;46.43;;;23.40;;
4278;SDS011;2153;47.744;10.580;2023-03-01T09:34:14;45.43;;;21.80;;
4278;SDS011;2153;47.744;10.580;2023-03-01T09:36:45;43.50;;;21.90;;
4278;SDS011;2153;47.744;10.580;2023-03-01T09:39:12;42.60;;;20.00;;
4278;SDS011;2153;47.744;10.580;2023-03-01T09:41:46;39.50;;;21.60;;
4278;SDS011;2153;47.744;10.580;2023-03-01T09:44:18;40.13;;;19.87;;
4278;SDS011;2153;47.744;10.580;2023-03-01T09:46:53;44.00;;;21.27;;
4278;SDS011;2153;47.744;10.580;2023-03-01T09:49:22;40.93;;;16.33;;
4278;SDS011;2153;47.744;10.580;2023-03-01T09:51:57;44.23;;;20.90;;
4278;SDS011;2153;47.744;10.580;2023-03-01T09:54:26;41.20;;;19.03;;
4278;SDS011;2153;47.744;10.580;2023-03-01T09:56:59;44.80;;;19.73;;
4278;SDS011;2153;47.744;10.580;2023-03-01T09:59:33;41.60;;;19.93;;
4278;SDS011;2153;47.744;10.580;2023-03-01T10:02:17;50.70;;;21.33;;
4278;SDS011;2153;47.744;10.580;2023-03-01T10:04:52;44.40;;;21.47;;
4278;SDS011;2153;47.744;10.580;2023-03-01T10:07:29;38.70;;;18.87;;
4278;SDS011;2153;47.744;10.580;2023-03-01T10:10:06;44.90;;;20.47;;
4278;SDS011;2153;47.744;10.580;2023-03-01T10:12:35;40.33;;;20.43;;
4278;SDS011;2153;47.744;10.580;2023-03-01T10:15:07;41.67;;;21.27;;
4278;SDS011;2153;47.744;10.580;2023-03-01T10:17:38;38.53;;;18.80;;
4278;SDS011;2153;47.744;10.580;2023-03-01T10:20:19;39.00;;;18.90;;
4278;SDS011;2153;47.744;10.580;2023-03-01T10:22:49;41.03;;;18.73;;
4278;SDS011;2153;47.744;10.580;2023-03-01T10:25:20;46.93;;;18.27;;
4278;SDS011;2153;47.744;10.580;2023-03-01T10:27:59;40.60;;;19.70;;
4278;SDS011;2153;47.744;10.580;2023-03-01T10:30:32;59.73;;;32.07;;
4278;SDS011;2153;47.744;10.580;2023-03-01T10:33:03;44.87;;;21.47;;
4278;SDS011;2153;47.744;10.580;2023-03-01T10:35:39;42.60;;;20.30;;
4278;SDS011;2153;47.744;10.580;2023-03-01T10:38:09;38.43;;;17.77;;
4278;SDS011;2153;47.744;10.580;2023-03-01T10:40:49;47.63;;;20.43;;
4278;SDS011;2153;47.744;10.580;2023-03-01T10:43:18;50.43;;;21.80;;
4278;SDS011;2153;47.744;10.580;2023-03-01T10:45:45;40.57;;;20.20;;
4278;SDS011;2153;47.744;10.580;2023-03-01T10:48:14;38.57;;;19.73;;
4278;SDS011;2153;47.744;10.580;2023-03-01T10:50:43;40.43;;;20.60;;
4278;SDS011;2153;47.744;10.580;2023-03-01T10:53:23;42.53;;;20.30;;
4278;SDS011;2153;47.744;10.580;2023-03-01T10:55:57;44.43;;;19.73;;
4278;SDS011;2153;47.744;10.580;2023-03-01T10:58:26;36.93;;;19.60;;
4278;SDS011;2153;47.744;10.580;2023-03-01T11:00:54;40.17;;;17.47;;
4278;SDS011;2153;47.744;10.580;2023-03-01T11:03:23;41.93;;;18.63;;
4278;SDS011;2153;47.744;10.580;2023-03-01T11:05:52;48.67;;;20.10;;
4278;SDS011;2153;47.744;10.580;2023-03-01T11:08:41;41.80;;;19.93;;
4278;SDS011;2153;47.744;10.580;2023-03-01T11:11:14;42.30;;;19.67;;
4278;SDS011;2153;47.744;10.580;2023-03-01T11:13:47;41.80;;;20.60;;
4278;SDS011;2153;47.744;10.580;2023-03-01T11:16:22;43.33;;;21.03;;
4278;SDS011;2153;47.744;10.580;2023-03-01T11:18:58;41.30;;;20.30;;
4278;SDS011;2153;47.744;10.580;2023-03-01T11:21:28;40.67;;;19.87;;
4278;SDS011;2153;47.744;10.580;2023-03-01T11:24:00;37.23;;;19.47;;
4278;SDS011;2153;47.744;10.580;2023-03-01T11:26:28;34.83;;;18.60;;
4278;SDS011;2153;47.744;10.580;2023-03-01T11:29:01;38.77;;;19.57;;
4278;SDS011;2153;47.744;10.580;2023-03-01T11:31:32;40.77;;;20.60;;
4278;SDS011;2153;47.744;10.580;2023-03-01T11:34:03;34.20;;;16.90;;
4278;SDS011;2153;47.744;10.580;2023-03-01T11:36:34;40.67;;;18.97;;
4278;SDS011;2153;47.744;10.580;2023-03-01T11:42:01;38.30;;;18.87;;
4278;SDS011;2153;47.744;10.580;2023-03-01T11:44:33;42.67;;;19.83;;
4278;SDS011;2153;47.744;10.580;2023-03-01T11:47:07;37.30;;;19.80;;
4278;SDS011;2153;47.744;10.580;2023-03-01T11:49:48;40.60;;;20.37;;
4278;SDS011;2153;47.744;10.580;2023-03-01T11:52:35;38.30;;;17.97;;
4278;SDS011;2153;47.744;10.580;2023-03-01T11:55:20;36.60;;;18.80;;
4278;SDS011;2153;47.744;10.580;2023-03-01T12:00:58;37.47;;;19.27;;
4278;SDS011;2153;47.744;10.580;2023-03-01T12:06:55;42.63;;;19.10;;
4278;SDS011;2153;47.744;10.580;2023-03-01T12:12:29;41.30;;;20.67;;
4278;SDS011;2153;47.744;10.580;2023-03-01T12:18:20;40.50;;;17.13;;
4278;SDS011;2153;47.744;10.580;2023-03-01T12:20:59;37.67;;;19.47;;
4278;SDS011;2153;47.744;10.580;2023-03-01T12:23:40;40.33;;;19.90;;
4278;SDS011;2153;47.744;10.580;2023-03-01T12:26:20;35.10;;;17.77;;
4278;SDS011;2153;47.744;10.580;2023-03-01T12:32:03;43.67;;;18.00;;
4278;SDS011;2153;47.744;10.580;2023-03-01T12:37:40;37.00;;;17.80;;
4278;SDS011;2153;47.744;10.580;2023-03-01T12:40:28;39.90;;;19.63;;
4278;SDS011;2153;47.744;10.580;2023-03-01T12:43:08;36.30;;;18.67;;
4278;SDS011;2153;47.744;10.580;2023-03-01T12:45:48;37.77;;;19.53;;
4278;SDS011;2153;47.744;10.580;2023-03-01T12:48:24;39.83;;;18.83;;
4278;SDS011;2153;47.744;10.580;2023-03-01T12:50:59;41.50;;;19.77;;
4278;SDS011;2153;47.744;10.580;2023-03-01T12:53:29;36.90;;;19.87;;
4278;SDS011;2153;47.744;10.580;2023-03-01T12:56:01;38.83;;;19.93;;
4278;SDS011;2153;47.744;10.580;2023-03-01T12:58:32;41.07;;;20.47;;
4278;SDS011;2153;47.744;10.580;2023-03-01T13:01:05;37.03;;;18.80;;
4278;SDS011;2153;47.744;10.580;2023-03-01T13:03:48;41.23;;;19.20;;
4278;SDS011;2153;47.744;10.580;2023-03-01T13:06:44;35.17;;;17.90;;
4278;SDS011;2153;47.744;10.580;2023-03-01T13:09:23;39.47;;;20.20;;
4278;SDS011;2153;47.744;10.580;2023-03-01T13:11:56;41.13;;;19.93;;
4278;SDS011;2153;47.744;10.580;2023-03-01T13:14:35;38.63;;;17.87;;
4278;SDS011;2153;47.744;10.580;2023-03-01T13:17:07;36.70;;;19.10;;
4278;SDS011;2153;47.744;10.580;2023-03-01T13:19:58;40.60;;;19.60;;
4278;SDS011;2153;47.744;10.580;2023-03-01T13:22:25;39.73;;;19.30;;
4278;SDS011;2153;47.744;10.580;2023-03-01T13:25:03;38.20;;;18.47;;
4278;SDS011;2153;47.744;10.580;2023-03-01T13:27:40;34.47;;;18.47;;
4278;SDS011;2153;47.744;10.580;2023-03-01T13:30:37;43.30;;;19.90;;
4278;SDS011;2153;47.744;10.580;2023-03-01T13:36:11;38.17;;;18.77;;
4278;SDS011;2153;47.744;10.580;2023-03-01T13:39:01;48.93;;;21.30;;
4278;SDS011;2153;47.744;10.580;2023-03-01T13:41:48;40.23;;;18.53;;
4278;SDS011;2153;47.744;10.580;2023-03-01T13:44:18;38.37;;;18.03;;
4278;SDS011;2153;47.744;10.580;2023-03-01T13:46:51;41.07;;;20.67;;
4278;SDS011;2153;47.744;10.580;2023-03-01T13:49:21;36.27;;;18.70;;
4278;SDS011;2153;47.744;10.580;2023-03-01T13:51:51;41.57;;;19.40;;
4278;SDS011;2153;47.744;10.580;2023-03-01T13:54:20;36.40;;;18.67;;
4278;SDS011;2153;47.744;10.580;2023-03-01T13:56:51;38.37;;;17.97;;
4278;SDS011;2153;47.744;10.580;2023-03-01T13:59:19;38.27;;;19.37;;
4278;SDS011;2153;47.744;10.580;2023-03-01T14:01:51;39.90;;;19.87;;
4278;SDS011;2153;47.744;10.580;2023-03-01T14:04:21;42.80;;;21.33;;
4278;SDS011;2153;47.744;10.580;2023-03-01T14:06:50;39.77;;;17.40;;
4278;SDS011;2153;47.744;10.580;2023-03-01T14:09:18;37.47;;;18.80;;
4278;SDS011;2153;47.744;10.580;2023-03-01T14:11:55;49.87;;;21.60;;
4278;SDS011;2153;47.744;10.580;2023-03-01T14:14:42;39.83;;;19.83;;
4278;SDS011;2153;47.744;10.580;2023-03-01T14:17:19;47.27;;;21.27;;
4278;SDS011;2153;47.744;10.580;2023-03-01T14:20:12;41.70;;;19.73;;
4278;SDS011;2153;47.744;10.580;2023-03-01T14:22:43;43.53;;;21.07;;
4278;SDS011;2153;47.744;10.580;2023-03-01T14:25:19;41.00;;;19.50;;
4278;SDS011;2153;47.744;10.580;2023-03-01T14:27:52;43.83;;;20.47;;
4278;SDS011;2153;47.744;10.580;2023-03-01T14:30:23;42.47;;;18.87;;
4278;SDS011;2153;47.744;10.580;2023-03-01T14:32:52;38.13;;;19.40;;
4278;SDS011;2153;47.744;10.580;2023-03-01T14:35:22;43.77;;;20.27;;
4278;SDS011;2153;47.744;10.580;2023-03-01T14:37:50;43.87;;;22.27;;
4278;SDS011;2153;47.744;10.580;2023-03-01T14:40:24;44.60;;;21.37;;
4278;SDS011;2153;47.744;10.580;2023-03-01T14:42:54;40.80;;;19.97;;
4278;SDS011;2153;47.744;10.580;2023-03-01T14:45:24;43.03;;;21.20;;
4278;SDS011;2153;47.744;10.580;2023-03-01T14:47:52;41.57;;;20.00;;
4278;SDS011;2153;47.744;10.580;2023-03-01T14:50:23;44.70;;;22.07;;
4278;SDS011;2153;47.744;10.580;2023-03-01T14:52:52;40.53;;;20.00;;
4278;SDS011;2153;47.744;10.580;2023-03-01T14:55:23;45.50;;;21.70;;
4278;SDS011;2153;47.744;10.580;2023-03-01T14:57:52;38.70;;;19.27;;
4278;SDS011;2153;47.744;10.580;2023-03-01T15:00:20;44.00;;;20.70;;
4278;SDS011;2153;47.744;10.580;2023-03-01T15:02:48;43.47;;;20.03;;
4278;SDS011;2153;47.744;10.580;2023-03-01T15:05:18;62.17;;;18.10;;
4278;SDS011;2153;47.744;10.580;2023-03-01T15:07:51;42.37;;;21.43;;
4278;SDS011;2153;47.744;10.580;2023-03-01T15:10:19;42.00;;;21.77;;
4278;SDS011;2153;47.744;10.580;2023-03-01T15:12:48;42.53;;;21.50;;
4278;SDS011;2153;47.744;10.580;2023-03-01T15:15:36;49.67;;;24.73;;